Time;durP1;ratioP1;P1;durP2;ratioP2;P2;SDS_P1;SDS_P2;PMS_P1;PMS_P2;Temp;Humidity;BMP_temperature;BMP_pressure;BME280_temperature;BME280_humidity;BME280_pressure;Samples;Min_cycle;Max_cycle;Signal;HPM_P1;HPM_P2
2020/12/30 00:00:32;;;;;;;5.33;3.90;;;;;;;2.45;87.25;98619.20;1835216;78;21125;-58
2020/12/30 00:03:00;;;;;;;8.60;3.75;;;;;;;2.41;87.42;98622.66;1836101;78;21126;-57
2020/12/30 00:05:28;;;;;;;5.30;3.55;;;;;;;2.41;87.44;98642.34;1835981;78;21309;-58
2020/12/30 00:07:56;;;;;;;7.10;4.30;;;;;;;2.38;87.60;98635.53;1836006;78;21485;-57
2020/12/30 00:10:24;;;;;;;8.00;4.30;;;;;;;2.37;87.76;98632.56;1835735;78;21149;-57
2020/12/30 00:12:52;;;;;;;6.70;4.22;;;;;;;2.37;87.93;98633.84;1836040;78;21117;-58
2020/12/30 00:15:20;;;;;;;7.97;3.83;;;;;;;2.38;87.92;98635.53;1836004;78;21121;-58
2020/12/30 00:17:47;;;;;;;5.15;3.55;;;;;;;2.41;87.92;98636.77;1835750;78;23595;-57
2020/12/30 00:20:17;;;;;;;5.97;3.47;;;;;;;2.44;87.82;98634.19;1836176;78;21582;-57
2020/12/30 00:22:45;;;;;;;9.95;3.83;;;;;;;2.48;87.71;98627.28;1836017;78;21097;-57
2020/12/30 00:25:14;;;;;;;6.42;3.50;;;;;;;2.55;87.61;98638.32;1835892;78;21098;-58
2020/12/30 00:27:43;;;;;;;4.35;3.40;;;;;;;2.60;87.45;98641.69;1836032;78;21141;-57
2020/12/30 00:30:18;;;;;;;8.33;3.62;;;;;;;2.65;87.25;98642.48;1835964;78;21183;-58
2020/12/30 00:32:47;;;;;;;6.28;3.15;;;;;;;2.72;87.04;98646.63;1834654;78;21129;-58
2020/12/30 00:35:16;;;;;;;6.25;3.70;;;;;;;2.79;86.83;98649.53;1835921;78;21102;-58
2020/12/30 00:37:45;;;;;;;7.65;4.97;;;;;;;2.81;86.54;98651.67;1835880;78;21093;-58
2020/12/30 00:40:13;;;;;;;9.00;6.03;;;;;;;2.84;86.28;98650.33;1834650;78;21926;-57
2020/12/30 00:42:41;;;;;;;13.45;7.53;;;;;;;2.86;86.17;98648.58;1836034;78;21312;-58
2020/12/30 00:45:09;;;;;;;15.20;8.30;;;;;;;2.87;86.05;98643.01;1835827;78;21129;-58
2020/12/30 00:47:38;;;;;;;16.20;8.83;;;;;;;2.89;85.89;98639.57;1834874;78;21038;-58
2020/12/30 00:50:06;;;;;;;12.07;7.55;;;;;;;2.91;85.82;98639.11;1835571;78;22061;-58
2020/12/30 00:52:35;;;;;;;12.20;7.22;;;;;;;2.91;85.58;98639.54;1835042;78;21164;-58
2020/12/30 00:55:04;;;;;;;11.35;7.00;;;;;;;2.90;85.43;98641.27;1805763;78;21433;-58
2020/12/30 00:57:39;;;;;;;8.08;4.87;;;;;;;2.91;85.31;98639.11;1834324;78;21073;-58
2020/12/30 01:00:07;;;;;;;7.87;4.80;;;;;;;2.91;85.15;98640.83;1836176;78;21061;-58
2020/12/30 01:02:46;;;;;;;7.30;4.65;;;;;;;2.92;85.04;98640.80;1831150;78;21113;-58
2020/12/30 01:05:13;;;;;;;5.20;3.90;;;;;;;2.93;84.93;98632.66;1836081;77;21545;-58
2020/12/30 01:07:41;;;;;;;8.88;5.10;;;;;;;2.91;84.80;98630.12;1836088;78;21204;-57
2020/12/30 01:10:09;;;;;;;9.65;5.40;;;;;;;2.92;84.78;98629.69;1835534;78;21050;-58
2020/12/30 01:12:38;;;;;;;10.43;6.08;;;;;;;2.92;84.83;98618.98;1836139;78;21054;-58
2020/12/30 01:15:05;;;;;;;20.08;9.10;;;;;;;2.95;84.68;98616.38;1836187;78;21118;-58
2020/12/30 01:17:33;;;;;;;14.95;6.78;;;;;;;2.96;84.46;98623.20;1836024;78;21101;-58
2020/12/30 01:20:02;;;;;;;13.58;6.87;;;;;;;2.96;84.27;98624.49;1836290;78;21361;-58
2020/12/30 01:22:30;;;;;;;12.07;6.97;;;;;;;2.96;84.19;98621.92;1835769;78;21176;-59
2020/12/30 01:24:58;;;;;;;10.28;6.15;;;;;;;2.95;84.00;98620.23;1835048;78;21121;-58
2020/12/30 01:27:26;;;;;;;9.98;4.67;;;;;;;2.91;83.99;98613.43;1836241;78;21097;-58
2020/12/30 01:29:53;;;;;;;7.22;4.53;;;;;;;2.90;83.87;98616.03;1836069;78;21113;-58
2020/12/30 01:32:21;;;;;;;6.28;4.20;;;;;;;2.89;83.78;98620.31;1835911;78;21493;-58
2020/12/30 01:34:48;;;;;;;4.62;3.52;;;;;;;2.89;83.64;98622.88;1835595;78;21054;-58
2020/12/30 01:37:17;;;;;;;4.62;3.10;;;;;;;2.87;83.64;98611.80;1836106;78;21058;-59
2020/12/30 01:39:45;;;;;;;5.25;3.47;;;;;;;2.88;83.42;98614.77;1835797;78;21134;-58
2020/12/30 01:42:12;;;;;;;5.90;4.10;;;;;;;2.86;83.33;98610.52;1836216;78;21109;-58
2020/12/30 01:44:40;;;;;;;6.15;3.52;;;;;;;2.83;83.14;98608.00;1836272;78;22051;-58
2020/12/30 01:47:08;;;;;;;4.92;3.65;;;;;;;2.76;82.94;98618.35;1835950;78;21062;-59
2020/12/30 01:49:36;;;;;;;5.22;3.70;;;;;;;2.74;82.87;98611.55;1835986;78;21535;-59
2020/12/30 01:52:03;;;;;;;6.87;3.55;;;;;;;2.69;82.94;98610.77;1836181;78;21101;-58
2020/12/30 01:54:31;;;;;;;6.10;3.83;;;;;;;2.65;83.02;98613.82;1835999;78;21515;-60
2020/12/30 01:56:59;;;;;;;5.53;3.55;;;;;;;2.63;83.15;98615.97;1836049;78;22427;-58
2020/12/30 02:04:07;;;;;;;5.15;3.62;;;;;;;2.56;83.21;98616.92;1836016;78;21570;-58
2020/12/30 02:06:35;;;;;;;4.78;4.00;;;;;;;2.54;83.30;98612.25;1806689;78;21570;-58
2020/12/30 02:09:05;;;;;;;6.33;3.90;;;;;;;2.53;83.30;98612.69;1806577;78;21109;-58
2020/12/30 02:11:33;;;;;;;8.30;3.85;;;;;;;2.57;83.22;98618.61;1835885;78;21373;-59
2020/12/30 02:14:05;;;;;;;6.53;3.62;;;;;;;2.57;83.11;98614.77;1835883;78;21154;-57
2020/12/30 02:16:55;;;;;;;7.55;3.35;;;;;;;2.59;82.71;98629.30;1836038;78;21090;-58
2020/12/30 02:19:24;;;;;;;6.40;3.45;;;;;;;2.58;82.61;98623.75;1836146;78;21089;-57
2020/12/30 02:21:55;;;;;;;5.17;3.17;;;;;;;2.56;82.66;98624.62;1836116;78;21144;-58
2020/12/30 02:24:30;;;;;;;6.05;3.47;;;;;;;2.52;82.70;98635.81;1836340;78;21542;-58
2020/12/30 02:26:58;;;;;;;5.50;2.92;;;;;;;2.46;82.75;98637.58;1835967;78;21117;-58
2020/12/30 02:29:28;;;;;;;4.78;3.12;;;;;;;2.43;82.73;98645.31;1835911;78;21034;-58
2020/12/30 02:31:57;;;;;;;6.55;3.50;;;;;;;2.38;82.74;98652.65;1836029;78;21125;-58
2020/12/30 02:34:25;;;;;;;5.37;3.50;;;;;;;2.34;82.85;98658.67;1836024;78;21105;-58
2020/12/30 02:36:53;;;;;;;5.53;3.20;;;;;;;2.30;82.96;98657.87;1835724;78;21940;-58
2020/12/30 02:39:20;;;;;;;4.60;2.90;;;;;;;2.28;83.03;98655.77;1836069;78;21065;-58
2020/12/30 02:41:49;;;;;;;5.42;3.60;;;;;;;2.27;83.07;98663.05;1835787;78;21093;-58
2020/12/30 02:44:17;;;;;;;5.75;3.12;;;;;;;2.25;83.05;98661.34;1835923;78;21049;-58
2020/12/30 02:46:45;;;;;;;9.25;3.22;;;;;;;2.24;83.05;98669.47;1836000;78;21148;-59
2020/12/30 02:49:12;;;;;;;5.42;3.15;;;;;;;2.24;83.12;98669.47;1836010;78;21361;-58
2020/12/30 02:51:44;;;;;;;11.18;4.60;;;;;;;2.26;83.05;98673.30;1836004;78;21062;-58
2020/12/30 02:54:12;;;;;;;8.45;4.15;;;;;;;2.27;83.00;98674.59;1836097;78;21168;-58
2020/12/30 02:56:40;;;;;;;8.20;3.98;;;;;;;2.30;82.82;98675.82;1835865;78;22044;-59
2020/12/30 02:59:08;;;;;;;8.78;4.08;;;;;;;2.31;82.56;98675.39;1835927;78;21054;-58
2020/12/30 03:01:36;;;;;;;6.58;2.90;;;;;;;2.32;82.25;98680.48;1836127;78;21301;-59
2020/12/30 03:04:04;;;;;;;5.72;2.67;;;;;;;2.27;81.92;98687.41;1835790;78;21163;-58
2020/12/30 03:06:32;;;;;;;12.45;4.55;;;;;;;2.21;82.01;98679.78;1835937;78;21140;-58
2020/12/30 03:09:00;;;;;;;9.60;4.10;;;;;;;2.19;81.98;98677.64;1836072;78;21109;-58
2020/12/30 03:11:28;;;;;;;5.72;3.83;;;;;;;2.17;81.95;98666.56;1836033;78;21042;-58
2020/12/30 03:13:56;;;;;;;7.05;3.30;;;;;;;2.14;81.84;98673.86;1835785;78;21194;-58
2020/12/30 03:16:24;;;;;;;6.20;3.47;;;;;;;2.10;81.81;98671.33;1835996;78;21124;-58
2020/12/30 03:18:52;;;;;;;6.20;3.08;;;;;;;2.07;81.85;98670.10;1835935;78;21133;-58
2020/12/30 03:21:20;;;;;;;5.15;2.98;;;;;;;2.00;81.80;98671.03;1835987;78;21047;-58
2020/12/30 03:23:47;;;;;;;4.70;2.92;;;;;;;1.92;81.87;98659.13;1836109;78;21050;-58
2020/12/30 03:26:15;;;;;;;6.35;2.55;;;;;;;1.88;82.10;98661.30;1836052;78;21380;-57
2020/12/30 03:28:43;;;;;;;4.40;2.90;;;;;;;1.83;82.25;98653.27;1835508;78;21109;-58
2020/12/30 03:31:11;;;;;;;6.92;2.95;;;;;;;1.80;82.38;98649.43;1836155;78;21145;-57
2020/12/30 03:33:39;;;;;;;4.65;2.95;;;;;;;1.76;82.45;98644.78;1835999;78;21085;-59
2020/12/30 03:36:07;;;;;;;7.15;2.90;;;;;;;1.73;82.51;98640.10;1832684;78;21058;-58
2020/12/30 03:38:36;;;;;;;8.13;2.90;;;;;;;1.70;82.56;98646.12;1827530;78;21253;-58
2020/12/30 03:41:04;;;;;;;6.20;3.20;;;;;;;1.68;82.64;98651.70;1827464;78;21105;-58
2020/12/30 03:43:31;;;;;;;5.75;2.50;;;;;;;1.65;82.80;98657.67;1827382;78;21141;-58
2020/12/30 03:45:59;;;;;;;6.30;2.65;;;;;;;1.65;82.86;98659.39;1827305;78;21117;-58
2020/12/30 03:48:27;;;;;;;4.15;2.95;;;;;;;1.64;82.89;98654.70;1827664;78;21051;-58
2020/12/30 03:50:55;;;;;;;6.05;3.17;;;;;;;1.62;82.93;98653.88;1827341;78;21368;-58
2020/12/30 03:53:23;;;;;;;10.88;5.53;;;;;;;1.60;83.00;98649.20;1827478;78;21146;-58
2020/12/30 03:55:51;;;;;;;5.97;3.77;;;;;;;1.58;82.98;98647.50;1827393;78;21047;-58
2020/12/30 03:58:20;;;;;;;5.47;3.62;;;;;;;1.53;82.98;98641.59;1827410;78;21047;-58
2020/12/30 04:00:48;;;;;;;5.17;3.55;;;;;;;1.49;83.10;98648.87;1827618;78;21055;-58
2020/12/30 04:03:16;;;;;;;9.20;4.08;;;;;;;1.44;83.17;98642.95;1827666;78;21359;-58
2020/12/30 04:05:44;;;;;;;6.92;4.35;;;;;;;1.41;83.25;98644.24;1827264;78;21574;-58
2020/12/30 04:08:12;;;;;;;12.10;4.45;;;;;;;1.38;83.23;98657.94;1827463;78;21133;-58
2020/12/30 04:10:40;;;;;;;8.48;4.60;;;;;;;1.34;83.29;98654.53;1827608;78;21078;-61
2020/12/30 04:13:08;;;;;;;7.65;5.10;;;;;;;1.28;83.40;98641.77;1827497;78;21050;-58
2020/12/30 04:15:35;;;;;;;10.63;4.40;;;;;;;1.23;83.54;98639.70;1827354;78;21281;-58
2020/12/30 04:18:03;;;;;;;10.32;4.67;;;;;;;1.17;83.72;98641.02;1827545;78;21151;-58
2020/12/30 04:20:31;;;;;;;6.47;4.60;;;;;;;1.13;83.83;98640.61;1827495;78;21043;-58
2020/12/30 04:22:59;;;;;;;9.75;4.70;;;;;;;1.11;84.04;98630.82;1827286;78;21054;-58
2020/12/30 04:25:27;;;;;;;5.80;4.30;;;;;;;1.10;84.23;98626.56;1827614;78;21063;-58
2020/12/30 04:27:55;;;;;;;6.67;4.42;;;;;;;1.12;84.40;98628.67;1827299;78;21137;-58
2020/12/30 04:30:23;;;;;;;5.70;3.58;;;;;;;1.13;84.46;98623.97;1827391;78;21153;-58
2020/12/30 04:32:51;;;;;;;5.80;3.42;;;;;;;1.16;84.46;98616.28;1827594;78;21161;-58
2020/12/30 04:35:19;;;;;;;6.60;4.10;;;;;;;1.19;84.46;98617.53;1827438;78;21050;-59
2020/12/30 04:37:47;;;;;;;5.97;3.92;;;;;;;1.23;84.43;98620.50;1827221;78;21039;-59
2020/12/30 04:40:14;;;;;;;7.17;4.62;;;;;;;1.25;84.42;98626.45;1827548;78;21537;-59
2020/12/30 04:42:42;;;;;;;8.48;5.20;;;;;;;1.26;84.31;98629.42;1807017;78;21169;-61
2020/12/30 04:45:11;;;;;;;8.38;6.55;;;;;;;1.24;84.28;98632.44;1827588;78;21102;-60
2020/12/30 04:47:39;;;;;;;9.40;5.90;;;;;;;1.22;84.23;98641.00;1827482;78;21569;-59
2020/12/30 04:50:07;;;;;;;6.95;4.58;;;;;;;1.18;84.32;98638.03;1807020;78;21102;-59
2020/12/30 04:52:35;;;;;;;5.50;3.95;;;;;;;1.12;84.38;98640.19;1827584;78;21147;-59
2020/12/30 04:55:02;;;;;;;5.42;3.55;;;;;;;1.09;84.48;98633.83;1806625;78;21200;-59
2020/12/30 04:57:56;;;;;;;7.35;3.77;;;;;;;1.04;84.54;98627.89;1827524;78;21030;-59
2020/12/30 05:00:25;;;;;;;6.37;3.83;;;;;;;0.99;84.70;98630.93;1827619;78;21162;-60
2020/12/30 05:02:55;;;;;;;7.72;4.05;;;;;;;0.93;84.88;98625.41;1827391;78;21551;-59
2020/12/30 05:05:22;;;;;;;5.50;4.00;;;;;;;0.90;85.13;98624.56;1781221;78;21375;-59
2020/12/30 05:07:51;;;;;;;5.15;3.92;;;;;;;0.87;85.32;98622.89;1806898;78;21114;-60
2020/12/30 05:10:18;;;;;;;7.15;4.17;;;;;;;0.86;85.50;98624.19;1827316;78;21066;-59
2020/12/30 05:12:46;;;;;;;8.50;3.98;;;;;;;0.85;85.71;98624.62;1827401;78;21094;-60
2020/12/30 05:15:14;;;;;;;6.12;4.22;;;;;;;0.83;85.83;98622.08;1827492;78;21121;-59
2020/12/30 05:17:42;;;;;;;5.90;4.40;;;;;;;0.85;85.98;98623.77;1827315;78;21229;-59
2020/12/30 05:20:10;;;;;;;5.55;4.33;;;;;;;0.87;86.15;98622.05;1807062;78;21082;-58
2020/12/30 05:22:38;;;;;;;6.55;4.37;;;;;;;0.89;86.22;98617.75;1827407;78;21039;-58
2020/12/30 05:25:06;;;;;;;6.25;3.90;;;;;;;0.91;86.25;98623.30;1827226;78;21156;-58
2020/12/30 05:27:36;;;;;;;6.37;4.03;;;;;;;0.92;86.18;98620.31;1827386;78;21110;-58
2020/12/30 05:30:04;;;;;;;5.75;4.37;;;;;;;0.91;86.24;98622.42;1827479;78;21691;-58
2020/12/30 05:32:37;;;;;;;5.92;4.05;;;;;;;0.92;86.31;98624.16;1827493;78;21058;-58
2020/12/30 05:35:05;;;;;;;5.95;3.90;;;;;;;0.92;86.37;98619.03;1827497;78;21916;-58
2020/12/30 05:37:34;;;;;;;4.15;3.65;;;;;;;0.92;86.31;98616.48;1833156;78;21114;-58
2020/12/30 05:40:04;;;;;;;6.67;3.95;;;;;;;0.93;86.39;98617.73;1835676;78;21610;-58
2020/12/30 05:42:31;;;;;;;6.15;3.98;;;;;;;0.94;86.39;98618.16;1806434;78;21329;-58
2020/12/30 05:45:00;;;;;;;8.73;4.65;;;;;;;0.95;86.42;98622.84;1836014;78;21188;-58
2020/12/30 05:47:28;;;;;;;6.28;4.10;;;;;;;0.96;86.43;98635.61;1836000;78;21092;-59
2020/12/30 05:49:57;;;;;;;6.97;3.90;;;;;;;0.98;86.43;98634.32;1835909;78;21093;-58
2020/12/30 05:52:27;;;;;;;8.00;4.05;;;;;;;0.98;86.42;98630.48;1836192;78;21113;-58
2020/12/30 05:55:01;;;;;;;6.15;3.65;;;;;;;0.98;86.39;98630.48;1835826;78;21329;-59
2020/12/30 05:57:34;;;;;;;7.37;4.62;;;;;;;1.01;86.38;98626.64;1836031;78;21042;-58
2020/12/30 06:00:08;;;;;;;6.70;4.28;;;;;;;1.00;86.32;98627.07;1836013;78;21053;-58
2020/12/30 06:02:45;;;;;;;6.95;4.53;;;;;;;1.04;86.34;98627.45;1835873;78;21046;-59
2020/12/30 06:05:18;;;;;;;13.85;5.55;;;;;;;1.05;86.26;98635.98;1799630;78;21191;-58
2020/12/30 06:07:49;;;;;;;12.55;6.70;;;;;;;1.03;86.30;98630.03;1824920;77;21367;-60
2020/12/30 06:10:20;;;;;;;16.30;7.72;;;;;;;1.04;86.27;98631.30;1811536;78;21200;-59
2020/12/30 06:13:00;;;;;;;14.83;6.97;;;;;;;1.06;86.25;98623.63;1823281;78;21601;-59
2020/12/30 06:15:30;;;;;;;15.85;6.45;;;;;;;1.07;86.20;98630.44;1822355;78;21659;-59
2020/12/30 06:18:04;;;;;;;21.35;7.75;;;;;;;1.05;86.19;98615.07;1832974;77;21093;-58
2020/12/30 06:20:39;;;;;;;14.73;7.12;;;;;;;1.06;86.17;98616.80;1826587;78;22210;-59
2020/12/30 06:23:09;;;;;;;;;;;;;;;1.06;86.24;98613.39;1828750;78;21836;-59
2020/12/30 06:25:43;;;;;;;22.93;7.42;;;;;;;1.07;86.22;98612.52;1827229;78;20285;-59
2020/12/30 06:28:19;;;;;;;19.35;6.95;;;;;;;1.06;86.29;98614.23;1831573;76;21194;-60
2020/12/30 06:30:49;;;;;;;16.62;5.85;;;;;;;1.06;86.40;98609.55;1869564;76;21145;-60
2020/12/30 06:33:22;;;;;;;14.78;6.15;;;;;;;1.08;86.25;98605.26;1867933;76;21354;-60
2020/12/30 06:35:57;;;;;;;14.00;7.03;;;;;;;1.11;86.16;98608.63;1833580;78;21180;-59
2020/12/30 06:38:27;;;;;;;13.50;6.83;;;;;;;1.17;85.96;98609.45;1836092;77;21164;-60
2020/12/30 06:40:59;;;;;;;12.80;6.67;;;;;;;1.21;85.82;98611.11;1805036;78;21222;-59
2020/12/30 06:43:48;;;;;;;17.27;6.95;;;;;;;1.28;85.51;98608.92;1829963;78;21149;-59
2020/12/30 06:46:28;;;;;;;10.60;5.65;;;;;;;1.33;85.22;98602.06;1823121;78;22231;-59
2020/12/30 06:49:03;;;;;;;8.48;5.10;;;;;;;1.42;84.82;98610.09;1823640;78;21180;-59
2020/12/30 06:51:37;;;;;;;11.60;6.58;;;;;;;1.49;84.66;98601.05;1823714;78;21125;-60
2020/12/30 06:54:05;;;;;;;12.35;6.70;;;;;;;1.57;84.30;98599.70;1824048;78;21607;-59
2020/12/30 06:56:42;;;;;;;13.88;7.12;;;;;;;1.62;84.01;98592.83;1823945;78;21191;-59
2020/12/30 06:59:19;;;;;;;;;;;;;;;1.66;83.91;98591.91;1826911;78;23451;-58
2020/12/30 07:01:59;;;;;;;13.32;7.10;;;;;;;1.69;83.79;98595.74;1820510;78;20297;-59
2020/12/30 07:04:29;;;;;;;12.00;6.08;;;;;;;1.72;83.75;98589.73;1824755;78;21097;-58
2020/12/30 07:07:00;;;;;;;11.70;5.15;;;;;;;1.75;83.69;98591.84;1824587;78;21080;-58
2020/12/30 07:09:35;;;;;;;18.80;6.67;;;;;;;1.81;83.47;98590.47;1824838;78;21046;-58
2020/12/30 07:12:06;;;;;;;14.45;6.00;;;;;;;1.88;83.23;98580.56;1823580;78;21205;-59
2020/12/30 07:14:37;;;;;;;16.57;6.08;;;;;;;1.95;83.07;98571.94;1824068;78;21113;-59
2020/12/30 07:17:08;;;;;;;16.67;6.17;;;;;;;2.01;82.78;98576.16;1823831;78;21164;-59
2020/12/30 07:19:40;;;;;;;15.13;9.30;;;;;;;2.06;82.32;98581.24;1819057;78;21141;-62
2020/12/30 07:22:15;;;;;;;8.63;5.12;;;;;;;2.10;82.13;98587.58;1797384;77;21578;-59
2020/12/30 07:24:53;;;;;;;9.00;4.95;;;;;;;2.14;81.97;98580.72;1790570;80;21371;-59
2020/12/30 07:27:24;;;;;;;7.15;5.00;;;;;;;2.16;81.75;98577.69;1819186;78;21088;-59
2020/12/30 07:29:53;;;;;;;9.78;5.62;;;;;;;2.16;81.55;98578.53;1830277;78;22209;-59
2020/12/30 07:32:21;;;;;;;9.78;5.85;;;;;;;2.16;81.51;98570.00;1825882;78;21145;-60
2020/12/30 07:34:55;;;;;;;12.03;7.70;;;;;;;2.17;81.49;98570.41;1798659;76;21171;-59
2020/12/30 07:37:24;;;;;;;18.05;9.63;;;;;;;2.21;81.53;98572.08;1799274;79;21211;-59
2020/12/30 07:39:53;;;;;;;15.68;8.75;;;;;;;2.25;81.43;98567.31;1800096;78;21210;-58
2020/12/30 07:42:24;;;;;;;12.60;6.65;;;;;;;2.32;81.27;98562.95;1774272;79;21175;-59
2020/12/30 07:44:57;;;;;;;10.48;5.90;;;;;;;2.37;80.84;98563.31;1781125;78;21152;-60
2020/12/30 07:47:29;;;;;;;10.60;5.70;;;;;;;2.42;80.82;98560.26;1785677;79;21151;-61
2020/12/30 07:50:04;;;;;;;7.90;5.00;;;;;;;2.47;80.81;98562.31;1786603;79;21388;-59
2020/12/30 07:52:33;;;;;;;6.80;4.78;;;;;;;2.52;80.80;98562.25;1788985;79;21169;-60
2020/12/30 07:55:02;;;;;;;7.15;4.22;;;;;;;2.60;80.58;98562.14;1784587;78;21158;-60
2020/12/30 07:57:30;;;;;;;6.08;4.33;;;;;;;2.67;80.38;98552.20;1789596;79;21177;-59
2020/12/30 08:00:01;;;;;;;5.87;3.77;;;;;;;2.77;80.22;98543.05;1781125;79;21210;-60
2020/12/30 08:02:31;;;;;;;5.20;4.03;;;;;;;2.88;80.07;98544.19;1781041;79;21384;-60
2020/12/30 08:05:02;;;;;;;6.35;4.10;;;;;;;3.00;79.79;98546.97;1789278;79;21106;-59
2020/12/30 08:07:34;;;;;;;6.70;4.72;;;;;;;3.14;79.68;98549.32;1752048;79;21158;-61
2020/12/30 08:10:03;;;;;;;5.90;4.65;;;;;;;3.27;79.15;98540.10;1793040;79;21247;-61
2020/12/30 08:12:32;;;;;;;7.45;4.60;;;;;;;3.38;78.78;98539.90;1786681;79;21711;-60
2020/12/30 08:15:00;;;;;;;6.62;5.12;;;;;;;3.48;78.56;98541.45;1781993;79;22188;-60
2020/12/30 08:17:29;;;;;;;7.47;5.53;;;;;;;3.56;78.19;98553.72;1789600;79;21199;-59
2020/12/30 08:19:58;;;;;;;9.58;5.17;;;;;;;3.62;78.21;98556.15;1778057;79;21183;-59
2020/12/30 08:22:29;;;;;;;6.33;4.35;;;;;;;3.65;77.96;98551.41;1781048;79;21197;-59
2020/12/30 08:25:04;;;;;;;4.45;3.50;;;;;;;3.65;77.65;98543.70;1794709;78;21752;-59
2020/12/30 08:27:34;;;;;;;18.15;9.98;;;;;;;3.67;77.52;98541.94;1793890;78;21160;-59
2020/12/30 08:30:07;;;;;;;7.08;5.15;;;;;;;3.70;77.64;98539.73;1757532;81;21163;-60
2020/12/30 08:32:48;;;;;;;9.78;5.70;;;;;;;3.73;77.62;98543.11;1776155;79;21174;-58
2020/12/30 08:35:27;;;;;;;10.00;5.28;;;;;;;3.77;77.56;98536.17;1795419;78;21127;-58
2020/12/30 08:38:06;;;;;;;6.67;4.25;;;;;;;3.84;77.45;98541.61;1785009;79;21167;-59
2020/12/30 08:40:43;;;;;;;9.20;5.15;;;;;;;3.93;77.76;98541.45;1773575;79;21418;-60
2020/12/30 08:43:44;;;;;;;6.90;5.25;;;;;;;4.10;77.70;98540.66;1781350;79;21179;-59
2020/12/30 08:46:24;;;;;;;10.78;5.20;;;;;;;4.27;77.44;98534.30;1802998;79;21158;-59
2020/12/30 08:48:54;;;;;;;6.53;4.40;;;;;;;4.42;76.99;98536.10;1762399;81;21089;-60
2020/12/30 08:51:35;;;;;;;5.50;3.90;;;;;;;4.49;76.47;98547.11;1800745;79;21102;-61
2020/12/30 08:54:18;;;;;;;8.80;5.15;;;;;;;4.49;76.20;98542.41;1775838;79;21199;-59
2020/12/30 08:56:57;;;;;;;8.45;4.97;;;;;;;4.47;75.97;98539.03;1761330;79;21082;-58
2020/12/30 08:59:35;;;;;;;5.08;4.10;;;;;;;4.45;76.02;98536.47;1762056;79;21062;-60
2020/12/30 09:02:32;;;;;;;5.97;4.30;;;;;;;4.45;76.04;98542.45;1785283;79;21169;-61
2020/12/30 09:05:02;;;;;;;6.47;4.17;;;;;;;4.50;75.88;98535.94;1700874;82;21203;-60
2020/12/30 09:07:30;;;;;;;7.97;4.85;;;;;;;4.56;75.83;98531.94;1711780;82;22274;-60
2020/12/30 09:10:10;;;;;;;5.03;4.12;;;;;;;4.61;75.61;98524.97;1709593;83;21136;-60
2020/12/30 09:12:39;;;;;;;5.80;4.47;;;;;;;4.67;75.23;98526.09;1725542;82;21198;-60
2020/12/30 09:15:07;;;;;;;7.72;5.22;;;;;;;4.69;74.91;98528.21;1721486;82;21108;-60
2020/12/30 09:17:37;;;;;;;6.80;4.92;;;;;;;4.72;74.97;98526.00;1720991;83;21215;-59
2020/12/30 09:20:21;;;;;;;6.05;4.80;;;;;;;4.72;74.82;98522.13;1673521;84;21247;-59
2020/12/30 09:22:58;;;;;;;6.30;4.72;;;;;;;4.69;74.39;98530.78;1660477;85;21149;-59
2020/12/30 09:25:41;;;;;;;6.05;4.17;;;;;;;4.67;74.81;98523.52;1660879;85;21251;-61
2020/12/30 09:28:20;;;;;;;5.30;4.50;;;;;;;4.68;75.07;98523.91;1688208;85;21265;-58
2020/12/30 09:30:54;;;;;;;8.20;5.70;;;;;;;4.75;75.13;98519.47;1697582;83;21160;-60
2020/12/30 09:33:27;;;;;;;7.90;4.87;;;;;;;4.82;75.13;98523.59;1705230;83;21602;-60
2020/12/30 09:36:09;;;;;;;6.70;5.10;;;;;;;4.90;75.24;98516.98;1665004;84;21165;-60
2020/12/30 09:38:40;;;;;;;5.40;4.60;;;;;;;4.95;75.17;98515.14;1678285;83;21667;-60
2020/12/30 09:41:14;;;;;;;6.37;4.55;;;;;;;5.02;75.02;98512.83;1683611;83;21220;-59
2020/12/30 09:43:46;;;;;;;7.50;5.03;;;;;;;5.09;74.64;98528.53;1694373;80;21273;-59
2020/12/30 09:46:22;;;;;;;7.15;5.37;;;;;;;5.16;74.51;98526.20;1756857;80;21188;-58
2020/12/30 09:48:50;;;;;;;9.28;6.40;;;;;;;5.23;74.36;98524.33;1780879;80;21163;-60
2020/12/30 09:51:20;;;;;;;6.45;5.28;;;;;;;5.27;74.31;98519.48;1779976;80;21189;-60
2020/12/30 09:53:54;;;;;;;6.03;5.33;;;;;;;5.32;74.31;98523.24;1753412;80;21907;-60
2020/12/30 09:56:22;;;;;;;8.55;6.47;;;;;;;5.35;74.03;98523.99;1739632;80;22192;-59
2020/12/30 09:58:50;;;;;;;11.30;8.88;;;;;;;5.33;74.29;98524.93;1738880;79;22255;-60
2020/12/30 10:01:23;;;;;;;9.28;6.45;;;;;;;5.34;74.17;98532.61;1760849;79;21212;-60
2020/12/30 10:03:51;;;;;;;7.20;5.50;;;;;;;5.33;74.27;98537.37;1785006;79;21196;-59
2020/12/30 10:06:20;;;;;;;6.33;4.87;;;;;;;5.36;74.42;98528.70;1785889;79;21176;-59
2020/12/30 10:08:48;;;;;;;10.95;5.75;;;;;;;5.40;74.20;98525.17;1779742;80;21253;-59
2020/12/30 10:11:19;;;;;;;6.80;5.42;;;;;;;5.42;74.01;98528.55;1779522;80;21493;-59
2020/12/30 10:13:47;;;;;;;7.85;5.35;;;;;;;5.46;74.06;98523.28;1776738;80;21168;-60
2020/12/30 10:16:16;;;;;;;6.62;5.10;;;;;;;5.50;74.06;98517.59;1775526;79;21168;-58
2020/12/30 10:18:46;;;;;;;6.53;5.15;;;;;;;5.48;74.24;98515.06;1757026;80;21188;-60
2020/12/30 10:21:14;;;;;;;7.65;4.55;;;;;;;5.48;74.54;98509.91;1716256;82;21183;-63
2020/12/30 10:23:43;;;;;;;6.28;5.10;;;;;;;5.50;74.83;98511.14;1695455;82;21209;-63
2020/12/30 10:26:12;;;;;;;8.93;5.75;;;;;;;5.52;75.24;98505.53;1728319;82;21186;-63
2020/12/30 10:28:45;;;;;;;6.92;4.72;;;;;;;5.54;75.57;98505.04;1726621;82;21215;-62
2020/12/30 10:31:15;;;;;;;8.90;6.10;;;;;;;5.53;75.78;98499.48;1730627;82;21166;-63
2020/12/30 10:33:44;;;;;;;10.75;7.10;;;;;;;5.51;75.80;98498.66;1772763;79;21558;-62
2020/12/30 10:36:12;;;;;;;9.40;6.83;;;;;;;5.46;76.17;98495.38;1770561;79;21284;-75
2020/12/30 10:38:42;;;;;;;15.95;9.98;;;;;;;5.41;76.64;98490.78;1764701;79;21457;-77
2020/12/30 10:41:17;;;;;;;16.57;10.82;;;;;;;5.34;76.34;98473.79;1759403;80;21177;-76
2020/12/30 10:43:46;;;;;;;18.17;11.07;;;;;;;5.31;76.60;98468.73;1768045;79;21183;-84
2020/12/30 10:46:15;;;;;;;10.38;7.53;;;;;;;5.32;76.75;98466.55;1747284;79;22282;-74
2020/12/30 10:48:47;;;;;;;11.30;6.65;;;;;;;5.33;76.81;98459.22;1769301;79;21180;-79
2020/12/30 10:51:18;;;;;;;9.90;6.55;;;;;;;5.35;77.03;98465.16;1778362;79;21149;-67
2020/12/30 10:53:47;;;;;;;9.48;7.15;;;;;;;5.36;77.28;98466.85;1772148;79;21112;-71
2020/12/30 10:56:15;;;;;;;10.82;7.22;;;;;;;5.33;77.41;98462.64;1745215;81;21223;-74
2020/12/30 10:58:44;;;;;;;9.45;7.20;;;;;;;5.33;77.56;98463.08;1726485;82;21162;-77
2020/12/30 11:01:13;;;;;;;21.25;10.45;;;;;;;5.35;77.62;98457.44;1728710;82;21175;-81
2020/12/30 11:03:41;;;;;;;11.28;7.47;;;;;;;5.38;77.76;98451.77;1727324;82;21150;-78
2020/12/30 11:06:09;;;;;;;10.70;7.20;;;;;;;5.46;78.00;98456.72;1744319;81;21181;-76
2020/12/30 11:08:37;;;;;;;12.70;8.18;;;;;;;5.53;78.15;98451.34;1730469;82;21651;-78
2020/12/30 11:11:06;;;;;;;16.00;11.70;;;;;;;5.65;78.35;98442.86;1724484;82;21639;-81
2020/12/30 11:13:35;;;;;;;17.35;11.30;;;;;;;5.79;78.12;98437.70;1729453;82;21207;-85
2020/12/30 11:16:03;;;;;;;10.48;8.85;;;;;;;5.91;77.77;98429.26;1731212;82;21717;-64
2020/12/30 11:18:31;;;;;;;9.38;7.20;;;;;;;5.96;77.35;98424.33;1730243;82;21204;-65
2020/12/30 11:21:00;;;;;;;9.60;6.72;;;;;;;5.99;77.16;98418.27;1765436;80;21109;-66
2020/12/30 11:23:28;;;;;;;10.63;6.72;;;;;;;6.01;77.10;98415.18;1754835;80;21176;-65
2020/12/30 11:25:56;;;;;;;8.40;5.95;;;;;;;6.06;77.28;98424.92;1739567;81;22692;-65
2020/12/30 11:28:24;;;;;;;10.75;7.78;;;;;;;6.07;77.13;98422.30;1726922;81;21688;-64
2020/12/30 11:30:52;;;;;;;13.90;9.75;;;;;;;6.09;77.16;98423.08;1757090;80;21122;-65
2020/12/30 11:33:20;;;;;;;237.70;115.42;;;;;;;6.15;77.50;98414.31;1753760;81;21124;-65
2020/12/30 11:35:48;;;;;;;179.35;84.85;;;;;;;6.24;77.46;98417.89;1773522;80;21843;-64
2020/12/30 11:38:16;;;;;;;97.80;47.33;;;;;;;6.27;77.40;98421.69;1773664;80;21194;-65
2020/12/30 11:40:45;;;;;;;69.65;30.40;;;;;;;6.28;77.19;98417.38;1767706;80;21444;-63
2020/12/30 11:43:13;;;;;;;27.62;15.30;;;;;;;6.29;76.80;98424.22;1732151;81;21164;-64
2020/12/30 11:45:41;;;;;;;82.33;43.28;;;;;;;6.26;76.74;98422.55;1743063;81;21164;-66
2020/12/30 11:48:11;;;;;;;20.68;13.78;;;;;;;6.28;76.70;98420.80;1745470;81;21062;-63
2020/12/30 11:50:40;;;;;;;25.82;16.77;;;;;;;6.29;76.71;98417.31;1741356;81;21224;-64
2020/12/30 11:53:10;;;;;;;21.85;14.33;;;;;;;6.29;77.08;98409.58;1742169;81;21578;-63
2020/12/30 11:55:38;;;;;;;28.10;18.40;;;;;;;6.25;76.75;98397.64;1746506;81;21148;-64
2020/12/30 11:58:06;;;;;;;21.73;15.98;;;;;;;6.17;76.41;98402.20;1740762;81;21622;-64